createdAt,value
2022-08-24T00:00:11.819Z,19.14
2022-08-24T00:02:58.937Z,19.09
2022-08-24T00:05:25.793Z,19.00
2022-08-24T00:07:53.093Z,19.02
2022-08-24T00:10:21.178Z,18.98
2022-08-24T00:12:50.070Z,19.06
2022-08-24T00:15:17.966Z,19.03
2022-08-24T00:17:44.957Z,19.03
2022-08-24T00:20:13.838Z,18.99
2022-08-24T00:22:41.267Z,18.95
2022-08-24T00:25:10.918Z,18.97
2022-08-24T00:27:38.644Z,18.99
2022-08-24T00:30:12.194Z,18.96
2022-08-24T00:32:38.944Z,19.03
2022-08-24T00:35:07.360Z,18.94
2022-08-24T00:37:34.404Z,18.97
2022-08-24T00:40:01.263Z,18.95
2022-08-24T00:42:28.341Z,18.93
2022-08-24T00:44:55.093Z,18.93
2022-08-24T00:47:39.019Z,19.05
2022-08-24T00:50:10.442Z,18.90
2022-08-24T00:52:47.103Z,18.96
2022-08-24T00:55:20.474Z,18.86
2022-08-24T00:57:50.830Z,18.89
2022-08-24T01:00:26.470Z,18.86
2022-08-24T01:03:04.387Z,18.84
2022-08-24T01:05:33.883Z,18.84
2022-08-24T01:08:03.860Z,18.88
2022-08-24T01:10:36.383Z,18.82
2022-08-24T01:13:06.892Z,18.80
2022-08-24T01:15:37.730Z,18.82
2022-08-24T01:18:25.796Z,18.70
2022-08-24T01:21:01.956Z,18.70
2022-08-24T01:23:40.015Z,18.74
2022-08-24T01:26:10.211Z,18.75
2022-08-24T01:28:40.656Z,18.73
2022-08-24T01:31:08.522Z,18.73
2022-08-24T01:33:35.516Z,18.67
2022-08-24T01:36:08.402Z,18.71
2022-08-24T01:38:35.654Z,18.70
2022-08-24T01:41:04.482Z,18.69
2022-08-24T01:43:31.815Z,18.77
2022-08-24T01:46:04.243Z,18.65
2022-08-24T01:48:31.476Z,18.70
2022-08-24T01:50:58.596Z,18.58
2022-08-24T01:53:26.122Z,18.60
2022-08-24T01:55:52.957Z,18.54
2022-08-24T01:58:20.057Z,18.55
2022-08-24T02:00:47.120Z,18.48
2022-08-24T02:03:14.254Z,18.51
2022-08-24T02:05:41.275Z,18.54
2022-08-24T02:08:08.222Z,18.49
2022-08-24T02:10:35.347Z,18.50
2022-08-24T02:13:02.873Z,18.47
2022-08-24T02:15:40.275Z,18.47
2022-08-24T02:18:15.029Z,18.46
2022-08-24T02:20:43.373Z,18.43
2022-08-24T02:23:10.694Z,18.44
2022-08-24T02:25:37.512Z,18.40
2022-08-24T02:28:04.715Z,18.40
2022-08-24T02:30:32.145Z,18.43
2022-08-24T02:32:59.959Z,18.45
2022-08-24T02:35:27.890Z,18.44
2022-08-24T02:37:54.851Z,18.44
2022-08-24T02:40:22.261Z,18.38
2022-08-24T02:42:49.120Z,18.38
2022-08-24T02:45:16.534Z,18.40
2022-08-24T02:47:43.403Z,18.38
2022-08-24T02:50:13.076Z,18.38
2022-08-24T02:52:41.777Z,18.34
2022-08-24T02:55:13.763Z,18.31
2022-08-24T02:57:41.190Z,18.33
2022-08-24T03:00:12.516Z,18.35
2022-08-24T03:02:40.178Z,18.35
2022-08-24T03:05:10.400Z,18.33
2022-08-24T03:07:37.807Z,18.32
2022-08-24T03:10:06.439Z,18.40
2022-08-24T03:12:34.723Z,18.31
2022-08-24T03:15:04.689Z,18.26
2022-08-24T03:17:33.581Z,18.24
2022-08-24T03:20:01.594Z,18.32
2022-08-24T03:22:28.635Z,18.33
2022-08-24T03:24:55.443Z,18.40
2022-08-24T03:27:22.628Z,18.37
2022-08-24T03:29:49.950Z,18.31
2022-08-24T03:32:17.792Z,18.30
2022-08-24T03:34:44.555Z,18.33
2022-08-24T03:37:11.570Z,18.29
2022-08-24T03:39:38.992Z,18.23
2022-08-24T03:42:06.571Z,18.27
2022-08-24T03:44:33.583Z,18.31
2022-08-24T03:47:01.536Z,18.22
2022-08-24T03:49:28.745Z,18.22
2022-08-24T03:51:55.743Z,18.23
2022-08-24T03:54:22.512Z,18.32
2022-08-24T03:56:49.341Z,18.27
2022-08-24T03:59:19.833Z,18.28
2022-08-24T04:01:46.959Z,18.22
2022-08-24T04:04:13.718Z,18.25
2022-08-24T04:06:44.355Z,18.25
2022-08-24T04:09:11.796Z,18.28
2022-08-24T04:11:41.368Z,18.34
2022-08-24T04:14:08.812Z,18.37
2022-08-24T04:16:57.231Z,18.37
2022-08-24T04:19:25.916Z,18.43
2022-08-24T04:21:53.268Z,18.43
2022-08-24T04:24:20.539Z,18.39
2022-08-24T04:26:47.723Z,18.43
2022-08-24T04:29:18.598Z,18.48
2022-08-24T04:31:46.237Z,18.44
2022-08-24T04:34:15.046Z,18.46
2022-08-24T04:36:43.637Z,18.51
2022-08-24T04:39:10.424Z,18.54
2022-08-24T04:41:37.449Z,18.59
2022-08-24T04:44:08.726Z,18.59
2022-08-24T04:46:35.854Z,18.65
2022-08-24T04:49:02.826Z,18.64
2022-08-24T04:51:30.638Z,18.69
2022-08-24T04:54:04.905Z,18.73
2022-08-24T04:56:31.795Z,18.81
2022-08-24T04:58:58.607Z,18.85
2022-08-24T05:01:27.754Z,18.83
2022-08-24T05:03:55.853Z,18.83
2022-08-24T05:06:25.880Z,18.85
2022-08-24T05:08:53.508Z,18.96
2022-08-24T05:11:21.749Z,19.00
2022-08-24T05:13:48.683Z,19.02
2022-08-24T05:16:18.011Z,19.09
2022-08-24T05:18:46.004Z,19.10
2022-08-24T05:21:16.101Z,19.15
2022-08-24T05:23:43.787Z,19.22
2022-08-24T05:26:25.404Z,19.24
2022-08-24T05:28:57.735Z,19.26
2022-08-24T05:31:26.560Z,19.34
2022-08-24T05:33:53.610Z,19.40
2022-08-24T05:36:30.464Z,19.45
2022-08-24T05:39:00.608Z,19.54
2022-08-24T05:41:28.075Z,19.63
2022-08-24T05:43:55.668Z,19.65
2022-08-24T05:46:22.757Z,19.79
2022-08-24T05:48:50.004Z,19.94
2022-08-24T05:51:21.536Z,20.06
2022-08-24T05:53:48.583Z,20.10
2022-08-24T05:56:17.529Z,20.26
2022-08-24T05:58:45.208Z,20.31
2022-08-24T06:01:14.606Z,20.44
2022-08-24T06:03:42.055Z,20.62
2022-08-24T06:06:09.657Z,20.76
2022-08-24T06:08:42.008Z,20.87
2022-08-24T06:11:09.744Z,20.91
2022-08-24T06:13:36.658Z,20.98
2022-08-24T06:16:21.629Z,20.93
2022-08-24T06:18:50.783Z,21.01
2022-08-24T06:21:21.605Z,21.19
2022-08-24T06:23:49.088Z,21.43
2022-08-24T06:26:34.340Z,21.61
2022-08-24T06:29:02.424Z,21.66
2022-08-24T06:31:34.472Z,21.66
2022-08-24T06:34:08.313Z,21.69
2022-08-24T06:36:35.112Z,21.75
2022-08-24T06:39:05.140Z,21.69
2022-08-24T06:41:33.078Z,21.83
2022-08-24T06:43:59.823Z,21.89
2022-08-24T06:46:32.001Z,22.03
2022-08-24T06:48:59.717Z,22.07
2022-08-24T06:51:26.491Z,22.11
2022-08-24T06:53:56.198Z,22.16
2022-08-24T06:56:23.348Z,22.28
2022-08-24T06:58:50.436Z,22.30
2022-08-24T07:01:20.348Z,22.36
2022-08-24T07:03:47.432Z,22.35
2022-08-24T07:06:14.934Z,22.41
2022-08-24T07:08:42.944Z,22.44
2022-08-24T07:11:12.240Z,22.51
2022-08-24T07:13:39.027Z,22.50
2022-08-24T07:16:06.305Z,22.48
2022-08-24T07:18:33.551Z,22.59
2022-08-24T07:21:02.492Z,22.71
2022-08-24T07:23:41.342Z,22.74
2022-08-24T07:26:22.068Z,22.87
2022-08-24T07:29:30.341Z,22.99
2022-08-24T07:31:57.164Z,23.20
2022-08-24T07:34:24.119Z,23.35
2022-08-24T07:36:52.419Z,23.49
2022-08-24T07:39:19.371Z,23.61
2022-08-24T07:42:10.971Z,23.74
2022-08-24T07:44:33.163Z,23.89
2022-08-24T07:47:15.144Z,23.99
2022-08-24T07:49:47.098Z,23.99
2022-08-24T07:52:13.993Z,24.12
2022-08-24T07:54:41.087Z,24.12
2022-08-24T07:57:08.123Z,24.20
2022-08-24T07:59:36.132Z,24.24
2022-08-24T08:02:03.572Z,24.32
2022-08-24T08:04:31.754Z,24.48
2022-08-24T08:07:00.804Z,24.74
2022-08-24T08:09:27.963Z,24.95
2022-08-24T08:11:55.469Z,24.98
2022-08-24T08:14:22.255Z,24.94
2022-08-24T08:16:49.616Z,25.05
2022-08-24T08:19:16.998Z,25.15
2022-08-24T08:22:08.390Z,25.35
2022-08-24T08:24:42.528Z,25.57
2022-08-24T08:27:10.370Z,25.49
2022-08-24T08:29:42.110Z,25.78
2022-08-24T08:32:12.142Z,26.21
2022-08-24T08:34:39.140Z,26.13
2022-08-24T08:37:06.308Z,26.15
2022-08-24T08:39:33.223Z,26.05
2022-08-24T08:42:18.978Z,26.31
2022-08-24T08:44:54.350Z,26.75
2022-08-24T08:47:59.170Z,27.10
2022-08-24T08:50:33.777Z,27.47
2022-08-24T08:53:30.076Z,27.55
2022-08-24T08:56:09.966Z,27.93
2022-08-24T08:58:57.571Z,27.96
2022-08-24T09:01:49.215Z,27.84
2022-08-24T09:05:06.644Z,28.05
2022-08-24T09:07:54.237Z,28.20
2022-08-24T09:10:47.073Z,27.84
2022-08-24T09:13:31.802Z,27.39
2022-08-24T09:16:32.698Z,27.24
2022-08-24T09:19:40.093Z,27.17
2022-08-24T09:22:13.145Z,27.16
2022-08-24T09:24:54.655Z,27.37
2022-08-24T09:27:40.507Z,27.82
2022-08-24T09:30:15.096Z,27.82
2022-08-24T09:32:44.980Z,28.06
2022-08-24T09:35:26.563Z,28.48
2022-08-24T09:38:07.244Z,28.49
2022-08-24T09:41:02.091Z,28.67
2022-08-24T09:43:32.163Z,28.34
2022-08-24T09:46:32.929Z,27.98
2022-08-24T09:49:14.263Z,27.94
2022-08-24T09:52:18.766Z,27.75
2022-08-24T09:55:14.940Z,27.54
2022-08-24T09:58:01.542Z,27.09
2022-08-24T10:00:36.823Z,26.99
2022-08-24T10:03:12.232Z,26.80
2022-08-24T10:06:03.618Z,26.66
2022-08-24T10:08:39.492Z,26.43
2022-08-24T10:11:44.087Z,26.31
2022-08-24T10:14:30.951Z,26.15
2022-08-24T10:17:26.607Z,26.22
2022-08-24T10:19:59.027Z,26.34
2022-08-24T10:22:47.816Z,26.59
2022-08-24T10:25:27.936Z,26.63
2022-08-24T10:28:08.237Z,26.61
2022-08-24T10:30:47.131Z,26.73
2022-08-24T10:33:17.090Z,26.85
2022-08-24T10:36:05.327Z,26.87
2022-08-24T10:39:30.484Z,26.84
2022-08-24T10:43:11.915Z,26.64
2022-08-24T10:46:03.665Z,26.66
2022-08-24T10:48:33.263Z,26.68
2022-08-24T10:51:41.338Z,26.72
2022-08-24T10:54:13.156Z,26.96
2022-08-24T10:56:56.942Z,27.26
2022-08-24T10:59:41.228Z,27.23
2022-08-24T11:02:27.745Z,27.21
2022-08-24T11:05:07.842Z,27.05
2022-08-24T11:07:36.548Z,27.07
2022-08-24T11:10:10.129Z,26.81
2022-08-24T11:12:43.139Z,26.45
2022-08-24T11:15:22.980Z,26.18
2022-08-24T11:18:07.935Z,26.04
2022-08-24T11:20:40.816Z,26.10
2022-08-24T11:23:09.194Z,25.97
2022-08-24T11:25:38.354Z,25.83
2022-08-24T11:29:00.901Z,25.90
2022-08-24T11:31:35.852Z,25.94
2022-08-24T11:34:34.172Z,25.95
2022-08-24T11:37:01.252Z,25.92
2022-08-24T11:39:36.002Z,25.95
2022-08-24T11:42:29.174Z,25.85
2022-08-24T11:45:01.674Z,25.84
2022-08-24T11:47:37.923Z,26.82
2022-08-24T11:50:19.732Z,27.04
2022-08-24T11:52:52.796Z,27.27
2022-08-24T11:55:24.922Z,27.32
2022-08-24T11:58:14.186Z,27.26
2022-08-24T12:01:09.432Z,27.64
2022-08-24T12:03:52.465Z,28.00
2022-08-24T12:06:44.909Z,28.02
2022-08-24T12:09:34.397Z,27.94
2022-08-24T12:12:26.136Z,28.70
2022-08-24T12:15:05.290Z,27.58
2022-08-24T12:17:56.294Z,27.86
2022-08-24T12:20:31.975Z,27.71
2022-08-24T12:23:08.740Z,27.72
2022-08-24T12:25:55.781Z,26.90
2022-08-24T12:28:29.447Z,26.79
2022-08-24T12:31:02.852Z,26.33
2022-08-24T12:33:34.546Z,26.20
2022-08-24T12:36:21.633Z,25.39
2022-08-24T12:39:03.958Z,25.56
2022-08-24T12:41:36.570Z,25.21
2022-08-24T12:44:12.097Z,25.25
2022-08-24T12:46:40.427Z,25.54
2022-08-24T12:49:27.439Z,25.68
2022-08-24T12:52:06.223Z,25.09
2022-08-24T12:55:05.613Z,24.80
2022-08-24T12:58:00.882Z,25.11
2022-08-24T13:00:47.888Z,25.17
2022-08-24T13:03:34.361Z,25.05
2022-08-24T13:06:08.079Z,24.98
2022-08-24T13:08:51.090Z,24.84
2022-08-24T13:11:24.312Z,24.88
2022-08-24T13:13:54.239Z,24.81
2022-08-24T13:16:45.512Z,25.01
2022-08-24T13:19:43.564Z,25.15
2022-08-24T13:22:10.322Z,25.22
2022-08-24T13:24:40.234Z,25.28
2022-08-24T13:27:12.793Z,25.22
2022-08-24T13:30:04.254Z,25.27
2022-08-24T13:32:35.818Z,25.33
2022-08-24T13:35:31.476Z,25.32
2022-08-24T13:38:22.980Z,25.17
2022-08-24T13:40:56.759Z,25.05
2022-08-24T13:43:33.447Z,25.17
2022-08-24T13:46:29.993Z,25.08
2022-08-24T13:49:21.247Z,25.12
2022-08-24T13:51:55.566Z,25.12
2022-08-24T13:54:32.497Z,25.25
2022-08-24T13:57:05.890Z,25.27
2022-08-24T13:59:47.598Z,25.32
2022-08-24T14:02:14.483Z,25.27
2022-08-24T14:04:53.767Z,25.27
2022-08-24T14:07:22.532Z,25.13
2022-08-24T14:10:23.128Z,25.08
2022-08-24T14:13:12.891Z,25.10
2022-08-24T14:15:48.374Z,25.10
2022-08-24T14:18:28.985Z,25.12
2022-08-24T14:20:58.691Z,25.17
2022-08-24T14:23:44.347Z,25.19
2022-08-24T14:26:42.039Z,25.30
2022-08-24T14:29:15.195Z,25.37
2022-08-24T14:32:12.312Z,25.35
2022-08-24T14:34:55.527Z,25.32
2022-08-24T14:37:46.033Z,25.29
2022-08-24T14:40:17.370Z,25.21
2022-08-24T14:42:59.519Z,25.27
2022-08-24T14:45:46.777Z,25.28
2022-08-24T14:48:42.377Z,25.17
2022-08-24T14:51:31.728Z,25.22
2022-08-24T14:54:17.143Z,25.22
2022-08-24T14:57:16.113Z,25.23
2022-08-24T14:59:43.082Z,25.32
2022-08-24T15:02:16.468Z,25.35
2022-08-24T15:04:51.066Z,25.41
2022-08-24T15:07:20.706Z,25.42
2022-08-24T15:09:47.850Z,25.52
2022-08-24T15:12:29.155Z,25.53
2022-08-24T15:15:10.224Z,25.55
2022-08-24T15:18:06.809Z,25.58
2022-08-24T15:20:51.188Z,25.62
2022-08-24T15:23:52.613Z,25.67
2022-08-24T15:26:49.430Z,27.48
2022-08-24T15:29:30.360Z,27.51
2022-08-24T15:32:07.591Z,27.40
2022-08-24T15:34:43.329Z,27.35
2022-08-24T15:37:10.646Z,27.36
2022-08-24T15:39:37.559Z,28.48
2022-08-24T15:42:10.199Z,28.44
2022-08-24T15:44:37.452Z,29.19
2022-08-24T15:47:26.604Z,29.04
2022-08-24T15:50:06.459Z,28.18
2022-08-24T15:52:43.994Z,27.67
2022-08-24T15:55:31.779Z,27.60
2022-08-24T15:58:13.326Z,27.95
2022-08-24T16:00:58.745Z,27.56
2022-08-24T16:03:49.096Z,27.25
2022-08-24T16:06:25.940Z,26.97
2022-08-24T16:09:11.194Z,26.71
2022-08-24T16:11:45.861Z,26.64
2022-08-24T16:14:31.847Z,26.62
2022-08-24T16:17:01.864Z,26.52
2022-08-24T16:19:33.288Z,26.37
2022-08-24T16:22:10.588Z,26.23
2022-08-24T16:24:40.722Z,26.15
2022-08-24T16:27:50.369Z,25.94
2022-08-24T16:30:25.518Z,25.53
2022-08-24T16:32:57.755Z,25.54
2022-08-24T16:35:25.351Z,25.28
2022-08-24T16:37:54.723Z,25.25
2022-08-24T16:40:22.462Z,25.25
2022-08-24T16:42:49.434Z,25.22
2022-08-24T16:45:21.108Z,25.05
2022-08-24T16:47:48.817Z,24.94
2022-08-24T16:50:18.961Z,24.80
2022-08-24T16:52:48.942Z,24.76
2022-08-24T16:55:15.973Z,24.77
2022-08-24T16:57:43.718Z,24.72
2022-08-24T17:00:15.596Z,24.57
2022-08-24T17:02:43.656Z,24.49
2022-08-24T17:05:11.093Z,24.45
2022-08-24T17:07:38.208Z,24.43
2022-08-24T17:10:09.179Z,24.32
2022-08-24T17:12:37.103Z,24.19
2022-08-24T17:15:09.544Z,23.98
2022-08-24T17:17:37.338Z,23.96
2022-08-24T17:20:07.647Z,23.97
2022-08-24T17:22:34.404Z,23.87
2022-08-24T17:25:01.553Z,23.76
2022-08-24T17:27:33.726Z,23.65
2022-08-24T17:30:02.870Z,23.61
2022-08-24T17:32:29.910Z,23.51
2022-08-24T17:34:56.822Z,23.46
2022-08-24T17:37:23.900Z,23.37
2022-08-24T17:39:55.558Z,23.25
2022-08-24T17:42:48.967Z,23.11
2022-08-24T17:45:12.989Z,23.07
2022-08-24T17:47:41.425Z,23.03
2022-08-24T17:50:10.352Z,22.96
2022-08-24T17:52:38.836Z,22.92
2022-08-24T17:55:09.473Z,22.81
2022-08-24T17:57:37.329Z,22.77
2022-08-24T18:00:10.286Z,22.71
2022-08-24T18:02:37.124Z,22.66
2022-08-24T18:05:04.146Z,22.66
2022-08-24T18:07:51.713Z,22.62
2022-08-24T18:10:22.038Z,22.54
2022-08-24T18:12:49.070Z,22.44
2022-08-24T18:15:16.660Z,22.46
2022-08-24T18:17:50.273Z,22.43
2022-08-24T18:20:22.235Z,22.40
2022-08-24T18:22:50.695Z,22.35
2022-08-24T18:25:23.201Z,22.31
2022-08-24T18:27:53.341Z,22.29
2022-08-24T18:30:30.622Z,22.36
2022-08-24T18:33:01.719Z,22.31
2022-08-24T18:35:30.673Z,22.25
2022-08-24T18:37:57.416Z,22.12
2022-08-24T18:40:26.297Z,22.16
2022-08-24T18:42:57.512Z,22.16
2022-08-24T18:45:30.680Z,22.31
2022-08-24T18:47:57.492Z,22.36
2022-08-24T18:50:24.397Z,22.32
2022-08-24T18:52:51.445Z,22.30
2022-08-24T18:55:18.306Z,22.24
2022-08-24T18:57:45.364Z,22.23
2022-08-24T19:00:15.470Z,22.08
2022-08-24T19:02:42.257Z,22.00
2022-08-24T19:05:13.136Z,22.01
2022-08-24T19:07:44.470Z,22.00
2022-08-24T19:10:14.843Z,22.09
2022-08-24T19:12:48.597Z,21.97
2022-08-24T19:15:38.831Z,21.93
2022-08-24T19:18:05.368Z,21.96
2022-08-24T19:20:33.758Z,21.93
2022-08-24T19:23:06.908Z,21.93
2022-08-24T19:25:35.312Z,21.88
2022-08-24T19:28:02.705Z,21.74
2022-08-24T19:30:29.510Z,21.72
2022-08-24T19:32:57.793Z,21.72
2022-08-24T19:35:24.669Z,21.71
2022-08-24T19:37:51.465Z,21.75
2022-08-24T19:40:20.949Z,21.67
2022-08-24T19:42:51.055Z,21.63
2022-08-24T19:45:51.974Z,21.62
2022-08-24T19:48:19.048Z,21.50
2022-08-24T19:50:45.828Z,21.50
2022-08-24T19:53:12.660Z,21.45
2022-08-24T19:55:39.639Z,21.47
2022-08-24T19:58:23.572Z,21.49
2022-08-24T20:01:13.643Z,21.41
2022-08-24T20:03:40.920Z,21.42
2022-08-24T20:06:08.158Z,21.45
2022-08-24T20:08:34.946Z,21.41
2022-08-24T20:11:01.738Z,21.40
2022-08-24T20:13:28.950Z,21.41
2022-08-24T20:15:56.671Z,21.34
2022-08-24T20:18:32.176Z,21.27
2022-08-24T20:20:59.535Z,21.23
2022-08-24T20:23:27.477Z,21.25
2022-08-24T20:25:56.418Z,21.20
2022-08-24T20:28:33.608Z,21.17
2022-08-24T20:31:03.426Z,21.16
2022-08-24T20:33:30.499Z,21.08
2022-08-24T20:35:58.039Z,21.11
2022-08-24T20:38:25.693Z,21.09
2022-08-24T20:40:57.927Z,21.10
2022-08-24T20:43:24.695Z,21.06
2022-08-24T20:45:52.243Z,21.07
2022-08-24T20:48:27.208Z,20.99
2022-08-24T20:50:54.465Z,20.92
2022-08-24T20:53:21.438Z,20.95
2022-08-24T20:55:48.311Z,20.92
2022-08-24T20:58:18.943Z,20.90
2022-08-24T21:00:46.529Z,20.94
2022-08-24T21:03:18.533Z,20.85
2022-08-24T21:05:48.445Z,20.80
2022-08-24T21:08:15.460Z,20.72
2022-08-24T21:10:42.502Z,20.69
2022-08-24T21:13:09.501Z,20.63
2022-08-24T21:15:38.326Z,20.62
2022-08-24T21:18:05.821Z,20.61
2022-08-24T21:20:32.835Z,20.60
2022-08-24T21:23:00.073Z,20.62
2022-08-24T21:25:27.656Z,20.59
2022-08-24T21:27:54.940Z,20.59
2022-08-24T21:30:23.100Z,20.53
2022-08-24T21:33:08.895Z,20.54
2022-08-24T21:35:37.372Z,20.54
2022-08-24T21:38:05.275Z,20.50
2022-08-24T21:40:32.794Z,20.50
2022-08-24T21:43:00.250Z,20.51
2022-08-24T21:45:27.483Z,20.53
2022-08-24T21:47:54.875Z,20.62
2022-08-24T21:50:25.623Z,20.58
2022-08-24T21:52:53.926Z,20.54
2022-08-24T21:55:21.686Z,20.60
2022-08-24T21:57:49.736Z,20.56
2022-08-24T22:00:18.856Z,20.51
2022-08-24T22:02:46.529Z,20.41
2022-08-24T22:05:17.460Z,20.39
2022-08-24T22:07:45.716Z,20.37
2022-08-24T22:10:13.374Z,20.39
2022-08-24T22:12:41.586Z,20.39
2022-08-24T22:15:12.037Z,20.40
2022-08-24T22:17:39.190Z,20.35
2022-08-24T22:20:07.888Z,20.36
2022-08-24T22:22:36.376Z,20.38
2022-08-24T22:25:05.383Z,20.37
2022-08-24T22:27:32.596Z,20.36
2022-08-24T22:29:59.543Z,20.33
2022-08-24T22:32:26.395Z,20.34
2022-08-24T22:34:53.440Z,20.27
2022-08-24T22:37:20.298Z,20.27
2022-08-24T22:39:47.144Z,20.22
2022-08-24T22:42:14.184Z,20.23
2022-08-24T22:44:41.011Z,20.20
2022-08-24T22:47:13.410Z,20.24
2022-08-24T22:49:45.745Z,20.21
2022-08-24T22:52:14.375Z,20.27
2022-08-24T22:54:41.630Z,20.26
2022-08-24T22:57:09.516Z,20.20
2022-08-24T22:59:39.339Z,20.19
2022-08-24T23:02:13.356Z,20.20
2022-08-24T23:04:44.170Z,20.22
2022-08-24T23:07:11.502Z,20.22
2022-08-24T23:09:44.933Z,20.22
2022-08-24T23:12:17.059Z,20.25
2022-08-24T23:14:44.047Z,20.32
2022-08-24T23:17:11.291Z,20.26
2022-08-24T23:19:57.095Z,20.19
2022-08-24T23:22:23.929Z,20.20
2022-08-24T23:24:52.977Z,20.15
2022-08-24T23:27:19.992Z,20.07
2022-08-24T23:29:48.521Z,20.03
2022-08-24T23:32:17.840Z,19.98
2022-08-24T23:34:47.383Z,19.99
2022-08-24T23:37:15.793Z,19.99
2022-08-24T23:39:43.074Z,19.99
2022-08-24T23:42:10.158Z,19.95
2022-08-24T23:44:37.218Z,19.92
2022-08-24T23:47:04.480Z,19.94
2022-08-24T23:49:31.900Z,19.94
2022-08-24T23:51:59.679Z,19.91
2022-08-24T23:54:27.680Z,19.90
2022-08-24T23:56:55.744Z,19.93
2022-08-24T23:59:27.955Z,19.95
